Time;durP1;ratioP1;P1;durP2;ratioP2;P2;SDS_P1;SDS_P2;PMS_P1;PMS_P2;Temp;Humidity;BMP_temperature;BMP_pressure;BME280_temperature;BME280_humidity;BME280_pressure;Samples;Min_cycle;Max_cycle;Signal;HPM_P1;HPM_P2
2022/11/16 00:01:25;;;;;;;22.55;8.77;;;;;;;21.69;55.24;99475.25;4994404;28;20107;-44
2022/11/16 00:03:55;;;;;;;10.77;4.03;;;;;;;21.69;55.23;99472.63;4995384;28;20026;-43
2022/11/16 00:06:22;;;;;;;14.90;5.10;;;;;;;21.69;55.33;99477.88;4996612;28;20084;-43
2022/11/16 00:11:38;;;;;;;9.07;4.05;;;;;;;21.69;55.15;99470.00;4990774;28;20152;-44
2022/11/16 00:14:04;;;;;;;13.25;4.55;;;;;;;21.68;55.12;99469.16;4995492;28;20125;-43
2022/11/16 00:16:30;;;;;;;14.88;4.95;;;;;;;21.68;55.12;99473.56;4993967;28;20041;-44
2022/11/16 00:18:57;;;;;;;12.82;4.72;;;;;;;21.68;55.17;99468.31;4997428;28;20152;-43
2022/11/16 00:21:23;;;;;;;13.18;4.93;;;;;;;21.68;55.22;99470.94;4995110;28;20640;-42
2022/11/16 00:23:48;;;;;;;11.23;3.55;;;;;;;21.67;55.26;99469.28;5000320;28;20033;-44
2022/11/16 00:26:26;;;;;;;19.40;6.18;;;;;;;21.66;55.12;99463.19;4992339;28;20041;-45
2022/11/16 00:28:53;;;;;;;16.48;5.18;;;;;;;21.67;55.21;99472.72;4998206;28;20077;-47
2022/11/16 00:31:18;;;;;;;13.88;4.78;;;;;;;21.66;55.26;99459.69;4993375;28;20065;-44
2022/11/16 00:33:44;;;;;;;19.45;7.65;;;;;;;21.66;55.31;99470.22;4984828;28;20030;-45
2022/11/16 00:36:11;;;;;;;10.15;4.90;;;;;;;21.65;55.30;99469.38;4991973;28;20022;-42
2022/11/16 00:38:37;;;;;;;12.35;5.40;;;;;;;21.65;55.23;99466.75;4995574;28;20042;-46
2022/11/16 00:41:03;;;;;;;12.52;4.95;;;;;;;21.65;55.28;99464.13;4991879;28;20056;-47
2022/11/16 00:43:29;;;;;;;14.25;5.13;;;;;;;21.65;55.23;99458.84;4991087;28;20157;-47
2022/11/16 00:45:54;;;;;;;6.78;2.78;;;;;;;21.64;55.26;99457.16;5000667;28;20088;-43
2022/11/16 00:48:20;;;;;;;11.90;4.97;;;;;;;21.64;55.15;99451.09;5002635;28;20124;-42
2022/11/16 00:50:46;;;;;;;14.95;4.65;;;;;;;21.64;55.17;99448.47;4997100;28;20084;-43
2022/11/16 00:53:13;;;;;;;14.70;5.60;;;;;;;21.65;55.23;99450.13;5001466;28;20757;-41
2022/11/16 00:55:39;;;;;;;11.23;4.95;;;;;;;21.64;55.33;99445.84;4995455;28;20128;-41
2022/11/16 00:58:04;;;;;;;16.40;6.05;;;;;;;21.63;55.35;99452.88;5000038;28;20518;-43
2022/11/16 01:00:30;;;;;;;13.90;4.82;;;;;;;21.63;55.36;99447.63;4999629;28;20088;-42
2022/11/16 01:02:55;;;;;;;16.95;6.85;;;;;;;21.62;55.33;99445.94;5000025;28;20037;-41
2022/11/16 01:05:21;;;;;;;22.02;7.47;;;;;;;21.63;55.19;99446.78;4998730;28;20499;-41
2022/11/16 01:07:46;;;;;;;12.23;4.55;;;;;;;21.63;55.19;99444.16;4994157;28;20081;-43
2022/11/16 01:10:15;;;;;;;14.05;5.25;;;;;;;21.63;55.39;99444.16;4995136;28;20156;-43
2022/11/16 01:12:40;;;;;;;13.70;4.57;;;;;;;21.62;55.34;99445.09;4995796;28;20442;-43
2022/11/16 01:15:10;;;;;;;13.23;4.00;;;;;;;21.61;55.26;99446.88;4998777;28;20087;-41
2022/11/16 01:17:40;;;;;;;16.27;4.90;;;;;;;21.61;55.30;99439.00;4997348;28;20157;-42
2022/11/16 01:20:09;;;;;;;17.48;6.70;;;;;;;21.61;55.35;99436.34;4991626;28;20045;-43
2022/11/16 01:22:35;;;;;;;15.20;6.32;;;;;;;21.61;55.16;99440.81;4999400;28;20040;-45
2022/11/16 01:25:01;;;;;;;14.93;5.35;;;;;;;21.61;55.10;99449.50;4992982;28;20097;-44
2022/11/16 01:27:26;;;;;;;16.98;5.60;;;;;;;21.61;55.19;99432.91;4999330;28;20033;-45
2022/11/16 01:29:52;;;;;;;13.60;4.72;;;;;;;21.61;55.34;99443.44;4999969;28;20053;-42
2022/11/16 01:32:18;;;;;;;14.73;4.32;;;;;;;21.61;55.30;99432.91;5001656;28;20037;-42
2022/11/16 01:34:43;;;;;;;12.93;4.97;;;;;;;21.60;55.21;99434.69;5003473;28;20095;-42
2022/11/16 01:37:08;;;;;;;12.30;4.90;;;;;;;21.60;55.37;99431.22;4993695;28;20049;-42
2022/11/16 01:39:34;;;;;;;16.58;5.45;;;;;;;21.60;55.30;99433.84;4997359;28;20064;-43
2022/11/16 01:41:59;;;;;;;11.68;4.65;;;;;;;21.59;55.30;99443.53;4997122;28;20045;-44
2022/11/16 01:44:30;;;;;;;16.23;5.70;;;;;;;21.59;55.31;99435.66;4994436;28;20149;-42
2022/11/16 01:46:57;;;;;;;11.77;3.95;;;;;;;21.59;55.23;99438.28;5001912;28;20104;-41
2022/11/16 01:49:26;;;;;;;20.10;7.25;;;;;;;21.58;55.33;99438.41;4999432;28;20038;-41
2022/11/16 01:51:56;;;;;;;10.02;3.67;;;;;;;21.58;55.29;99449.72;4999488;28;20034;-41
2022/11/16 01:54:22;;;;;;;12.27;3.97;;;;;;;21.59;55.21;99447.94;4988047;28;20061;-41
2022/11/16 01:56:51;;;;;;;16.50;6.15;;;;;;;21.58;55.33;99451.56;4999322;28;20041;-42
2022/11/16 01:59:17;;;;;;;14.70;5.07;;;;;;;21.58;55.20;99443.66;4998897;28;20061;-41
2022/11/16 02:01:42;;;;;;;12.70;4.38;;;;;;;21.57;55.27;99445.44;5000162;28;20169;-42
2022/11/16 02:04:12;;;;;;;10.10;4.13;;;;;;;21.59;55.26;99447.94;4997299;28;20042;-42
2022/11/16 02:06:56;;;;;;;14.02;5.28;;;;;;;21.57;55.30;99448.06;4998192;28;20254;-42
2022/11/16 02:12:43;;;;;;;11.77;3.95;;;;;;;21.56;55.27;99435.88;4981378;28;20460;-42
2022/11/16 02:15:17;;;;;;;13.27;5.45;;;;;;;21.57;55.29;99441.97;4976747;28;20058;-43
2022/11/16 02:18:00;;;;;;;17.17;5.70;;;;;;;21.55;55.42;99434.19;4982905;28;20605;-44
2022/11/16 02:20:48;;;;;;;17.40;5.53;;;;;;;21.55;55.25;99428.94;4978454;28;20046;-44
2022/11/16 02:23:17;;;;;;;16.08;5.90;;;;;;;21.56;55.23;99435.03;4978709;28;20787;-44
2022/11/16 02:25:59;;;;;;;14.40;5.13;;;;;;;21.55;55.40;99430.72;4977345;28;20120;-44
2022/11/16 02:28:28;;;;;;;13.32;4.68;;;;;;;21.55;55.21;99426.28;4980744;28;20042;-43
2022/11/16 02:30:56;;;;;;;17.90;5.70;;;;;;;21.55;55.31;99425.44;4978051;28;20035;-44
2022/11/16 02:33:30;;;;;;;11.85;4.70;;;;;;;21.55;55.33;99414.94;4977286;28;20145;-42
2022/11/16 02:36:00;;;;;;;14.63;5.03;;;;;;;21.54;55.29;99413.25;4977642;28;20041;-43
2022/11/16 02:38:30;;;;;;;12.98;4.78;;;;;;;21.54;55.33;99410.63;4977700;28;20046;-44
2022/11/16 02:41:07;;;;;;;13.25;4.63;;;;;;;21.54;55.18;99402.72;4973073;28;20408;-45
2022/11/16 02:43:38;;;;;;;11.23;4.18;;;;;;;21.53;55.14;99399.25;4974774;28;20042;-47
2022/11/16 02:46:08;;;;;;;13.68;4.63;;;;;;;21.54;55.06;99400.09;4977643;28;20045;-43
2022/11/16 02:48:36;;;;;;;13.63;5.25;;;;;;;21.53;55.32;99390.53;4989263;28;20117;-44
2022/11/16 02:51:05;;;;;;;13.40;5.10;;;;;;;21.53;55.28;99383.47;4977370;28;20046;-44
2022/11/16 02:53:36;;;;;;;13.85;5.68;;;;;;;21.53;55.39;99383.47;4973359;28;20435;-44
2022/11/16 02:56:01;;;;;;;13.68;4.85;;;;;;;21.52;55.22;99397.56;4978962;28;20069;-43
2022/11/16 02:58:28;;;;;;;18.75;5.78;;;;;;;21.53;55.15;99385.25;4977205;28;20046;-45
2022/11/16 03:01:06;;;;;;;16.25;5.32;;;;;;;21.52;55.41;99376.53;4974884;28;20031;-44
2022/11/16 03:03:50;;;;;;;16.90;7.70;;;;;;;21.52;55.22;99373.91;4971598;28;20142;-43
2022/11/16 03:06:21;;;;;;;14.05;4.82;;;;;;;21.52;55.23;99379.16;4977566;28;20070;-44
2022/11/16 03:08:58;;;;;;;12.07;4.43;;;;;;;21.52;55.07;99375.72;4974235;28;20064;-43
2022/11/16 03:14:15;;;;;;;12.27;4.93;;;;;;;21.51;55.48;99382.75;4975668;28;20427;-43
2022/11/16 03:16:44;;;;;;;14.20;4.88;;;;;;;21.50;55.13;99399.47;4978431;28;21796;-43
2022/11/16 03:19:14;;;;;;;18.95;7.05;;;;;;;21.51;55.35;99410.84;4978246;28;20137;-43
2022/11/16 03:21:50;;;;;;;13.18;6.65;;;;;;;21.50;55.29;99404.75;4974978;28;20038;-46
2022/11/16 03:24:16;;;;;;;16.30;6.00;;;;;;;21.50;55.12;99396.00;4977706;28;20030;-45
2022/11/16 03:26:55;;;;;;;18.05;5.50;;;;;;;21.50;55.18;99396.84;4981219;28;20057;-43
2022/11/16 03:30:07;;;;;;;18.27;7.50;;;;;;;21.50;55.31;99407.38;4970531;28;20600;-44
2022/11/16 03:32:41;;;;;;;15.00;5.15;;;;;;;21.51;55.21;99418.72;4976650;28;20042;-44
2022/11/16 03:35:10;;;;;;;15.02;6.45;;;;;;;21.49;55.12;99405.69;4974863;28;20069;-43
2022/11/16 03:37:37;;;;;;;10.77;4.13;;;;;;;21.49;55.14;99403.06;4974682;28;20038;-47
2022/11/16 03:40:04;;;;;;;12.85;4.68;;;;;;;21.50;55.08;99403.91;4972005;28;20048;-45
2022/11/16 03:42:31;;;;;;;11.73;4.55;;;;;;;21.50;55.33;99406.53;4977688;28;20041;-45
2022/11/16 03:44:57;;;;;;;11.75;3.78;;;;;;;21.49;55.25;99413.56;4978387;28;20039;-42
2022/11/16 03:47:23;;;;;;;18.08;5.85;;;;;;;21.50;55.22;99411.78;4979741;28;20050;-45
2022/11/16 03:49:48;;;;;;;15.60;5.28;;;;;;;21.50;55.32;99422.31;4969868;28;20035;-44
2022/11/16 03:52:15;;;;;;;15.20;5.10;;;;;;;21.48;55.15;99425.06;4976450;28;20598;-45
2022/11/16 03:54:41;;;;;;;17.40;6.57;;;;;;;21.48;55.15;99424.22;4978443;28;20025;-43
2022/11/16 03:57:07;;;;;;;12.98;4.90;;;;;;;21.48;55.13;99430.31;4979983;28;20053;-43
2022/11/16 03:59:32;;;;;;;18.35;6.65;;;;;;;21.48;55.29;99432.09;4978051;28;20038;-45
2022/11/16 04:01:57;;;;;;;13.30;4.60;;;;;;;21.48;55.32;99437.38;4976359;28;20129;-44
2022/11/16 04:28:11;;;;;;;14.07;4.70;;;;;;;21.46;55.26;99445.34;4980309;28;20049;-44
2022/11/16 04:29:06;;;;;;;10.98;4.35;;;;;;;21.46;55.18;99449.78;4977430;28;20411;-43
2022/11/16 04:39:43;;;;;;;12.95;4.47;;;;;;;21.45;55.33;99448.09;4975308;28;20033;-45
2022/11/16 04:42:18;;;;;;;13.10;4.75;;;;;;;21.45;55.16;99453.38;4978934;28;20034;-45
2022/11/16 04:47:28;;;;;;;15.02;4.93;;;;;;;21.44;55.15;99457.78;4977962;28;20060;-45
2022/11/16 04:49:53;;;;;;;12.88;4.60;;;;;;;21.43;55.13;99450.88;4975416;28;20034;-44
2022/11/16 04:52:18;;;;;;;23.50;6.90;;;;;;;21.44;55.30;99455.16;4973860;28;20034;-46
2022/11/16 04:54:44;;;;;;;22.55;8.80;;;;;;;21.45;55.12;99458.63;4977100;28;20544;-47
2022/11/16 04:57:09;;;;;;;15.00;5.07;;;;;;;21.44;55.25;99462.19;4973905;28;20035;-47
2022/11/16 04:59:35;;;;;;;15.02;5.18;;;;;;;21.43;55.15;99455.28;4977504;28;20046;-46
2022/11/16 05:02:09;;;;;;;13.00;4.22;;;;;;;21.44;55.18;99463.03;4978242;28;20034;-47
2022/11/16 05:04:40;;;;;;;20.85;7.32;;;;;;;21.43;55.29;99471.91;4979141;28;20046;-45
2022/11/16 05:07:09;;;;;;;14.07;4.35;;;;;;;21.43;55.14;99471.91;4970376;28;20050;-44
2022/11/16 05:09:43;;;;;;;12.90;4.82;;;;;;;21.42;55.27;99470.22;4967903;28;20041;-47
2022/11/16 05:12:23;;;;;;;9.50;3.95;;;;;;;21.42;55.35;99478.09;4974207;28;20642;-47
2022/11/16 05:14:49;;;;;;;12.80;4.45;;;;;;;21.43;55.16;99473.69;4973183;28;20050;-46
2022/11/16 05:17:15;;;;;;;17.38;5.88;;;;;;;21.41;55.20;99479.03;4975698;28;20042;-47
2022/11/16 05:22:24;;;;;;;17.63;6.68;;;;;;;21.42;55.20;99479.88;4975179;28;20415;-46
2022/11/16 05:24:49;;;;;;;15.52;6.22;;;;;;;21.42;55.10;99472.00;4971913;28;20039;-45
2022/11/16 05:27:20;;;;;;;18.20;5.85;;;;;;;21.41;55.48;99481.66;4976192;28;20027;-47
2022/11/16 05:29:45;;;;;;;20.60;8.30;;;;;;;21.41;55.16;99481.66;4982217;28;20030;-48
2022/11/16 05:32:12;;;;;;;13.00;4.65;;;;;;;21.40;55.29;99477.38;4972017;28;20074;-47
2022/11/16 05:34:38;;;;;;;16.33;5.55;;;;;;;21.41;55.32;99480.81;4977116;28;20049;-45
2022/11/16 05:37:04;;;;;;;13.93;5.20;;;;;;;21.41;55.43;99478.19;4975010;28;20047;-45
2022/11/16 05:39:29;;;;;;;12.65;4.75;;;;;;;21.40;55.35;99482.63;4977417;28;20022;-48
2022/11/16 05:41:55;;;;;;;13.05;4.35;;;;;;;21.39;55.36;99480.94;4986923;28;20080;-47
2022/11/16 05:44:20;;;;;;;12.88;4.18;;;;;;;21.40;55.07;99481.78;4981277;28;20050;-46
2022/11/16 05:46:46;;;;;;;11.68;4.90;;;;;;;21.40;55.31;99482.63;4979665;28;20555;-45
2022/11/16 05:49:12;;;;;;;17.38;7.28;;;;;;;21.40;55.25;99480.00;4977333;28;20038;-46
2022/11/16 05:51:42;;;;;;;10.55;3.92;;;;;;;21.43;55.21;99482.41;4982769;28;20060;-45
2022/11/16 05:54:11;;;;;;;12.82;4.75;;;;;;;21.47;54.96;99490.88;4978632;28;20065;-46
2022/11/16 05:56:37;;;;;;;12.60;4.88;;;;;;;21.50;54.98;99482.78;4974380;28;20030;-47
2022/11/16 05:59:02;;;;;;;13.25;5.30;;;;;;;21.53;54.87;99480.75;4975944;28;20038;-45
2022/11/16 06:01:28;;;;;;;16.15;6.47;;;;;;;21.57;54.97;99482.25;4978395;28;20061;-45
2022/11/16 06:03:53;;;;;;;13.13;4.60;;;;;;;21.61;54.86;99485.50;4978535;28;20038;-47
2022/11/16 06:06:19;;;;;;;9.98;3.92;;;;;;;21.64;54.84;99490.53;4980330;28;20049;-46
2022/11/16 06:08:45;;;;;;;11.32;4.32;;;;;;;21.67;54.80;99493.75;4983303;28;20033;-45
2022/11/16 06:11:12;;;;;;;14.60;4.88;;;;;;;21.70;54.73;99497.97;4980093;28;20096;-45
2022/11/16 06:13:37;;;;;;;14.35;5.28;;;;;;;21.73;54.66;99500.34;4979871;28;20149;-47
2022/11/16 06:16:04;;;;;;;12.25;3.53;;;;;;;21.74;54.52;99505.53;4980671;28;20057;-45
2022/11/16 06:18:30;;;;;;;14.65;5.07;;;;;;;21.77;54.44;99510.56;4978699;28;20509;-46
2022/11/16 06:20:55;;;;;;;15.30;5.18;;;;;;;21.79;54.63;99521.78;4976705;28;20139;-44
2022/11/16 06:23:21;;;;;;;13.50;5.05;;;;;;;21.82;54.50;99536.50;4980153;28;20043;-47
2022/11/16 06:25:51;;;;;;;13.75;4.95;;;;;;;21.84;54.26;99539.88;4978757;28;20053;-46
2022/11/16 06:28:20;;;;;;;16.48;5.15;;;;;;;21.87;54.47;99533.56;4976401;28;20046;-45
2022/11/16 06:30:47;;;;;;;14.52;5.15;;;;;;;21.91;54.36;99545.53;4976603;28;20086;-47
2022/11/16 06:33:12;;;;;;;15.25;5.22;;;;;;;21.96;54.35;99548.66;4975391;28;20037;-44
2022/11/16 06:35:38;;;;;;;12.60;5.20;;;;;;;21.99;54.11;99548.44;4971146;28;20505;-45
2022/11/16 06:38:03;;;;;;;14.50;4.13;;;;;;;22.03;54.27;99547.22;4977825;28;20684;-43
2022/11/16 06:40:29;;;;;;;14.50;4.75;;;;;;;22.04;54.07;99554.19;4980498;28;20038;-41
2022/11/16 06:42:57;;;;;;;15.18;5.57;;;;;;;22.06;54.11;99552.25;4985273;28;20027;-41
2022/11/16 06:45:22;;;;;;;13.35;4.68;;;;;;;22.06;54.05;99552.25;4982116;28;20535;-42
2022/11/16 06:47:48;;;;;;;13.50;4.50;;;;;;;22.09;54.02;99552.03;4973855;28;20118;-43
2022/11/16 06:50:17;;;;;;;19.63;5.75;;;;;;;22.08;53.91;99548.59;4976299;28;20092;-42
2022/11/16 06:52:45;;;;;;;11.55;3.70;;;;;;;22.08;54.15;99550.38;4979691;28;20037;-42
2022/11/16 06:55:11;;;;;;;13.93;5.82;;;;;;;22.09;54.08;99557.28;4970554;28;20050;-42
2022/11/16 06:57:40;;;;;;;15.27;5.03;;;;;;;22.09;54.05;99565.19;4976985;28;20515;-44
2022/11/16 07:00:06;;;;;;;14.88;5.65;;;;;;;22.06;54.04;99558.38;4975939;28;20030;-42
2022/11/16 07:02:32;;;;;;;13.90;5.28;;;;;;;22.07;54.02;99567.94;5011498;28;20830;-45
2022/11/16 07:04:57;;;;;;;14.07;4.18;;;;;;;22.09;54.10;99571.31;4976715;28;20042;-44
2022/11/16 07:07:23;;;;;;;12.75;4.53;;;;;;;22.15;54.15;99570.00;4974006;28;20043;-42
2022/11/16 07:09:48;;;;;;;12.32;4.32;;;;;;;22.20;54.31;99574.00;4976496;28;20122;-44
2022/11/16 07:12:13;;;;;;;12.88;4.07;;;;;;;22.26;54.35;99586.66;4979570;28;20037;-43
2022/11/16 07:14:39;;;;;;;12.90;4.65;;;;;;;22.33;54.44;99594.94;4978906;28;20035;-43
2022/11/16 07:17:05;;;;;;;15.82;4.82;;;;;;;22.37;54.38;99593.78;4976513;28;20451;-42
2022/11/16 07:19:30;;;;;;;17.75;5.90;;;;;;;22.43;54.43;99597.78;4983822;28;20586;-44
2022/11/16 07:21:55;;;;;;;14.68;6.20;;;;;;;22.46;54.38;99601.03;4972559;28;20042;-43
2022/11/16 07:24:21;;;;;;;13.57;4.32;;;;;;;22.51;54.43;99608.56;4974216;28;20042;-46
2022/11/16 07:26:46;;;;;;;13.57;4.07;;;;;;;22.54;54.44;99606.53;4978967;28;20125;-44
2022/11/16 07:29:12;;;;;;;16.02;6.43;;;;;;;22.58;54.51;99618.53;4972911;28;20042;-46
2022/11/16 07:31:38;;;;;;;13.70;5.70;;;;;;;22.62;54.48;99625.22;4975643;28;20042;-47
2022/11/16 07:34:04;;;;;;;20.40;5.50;;;;;;;22.64;54.58;99631.25;4974464;28;20722;-50
2022/11/16 07:36:29;;;;;;;15.48;5.65;;;;;;;22.67;54.61;99630.16;4978296;28;20030;-47
2022/11/16 07:38:55;;;;;;;11.93;4.18;;;;;;;22.68;54.50;99624.75;4979980;28;20031;-50
2022/11/16 07:41:20;;;;;;;12.60;4.55;;;;;;;22.71;54.67;99618.44;4976745;28;20043;-49
2022/11/16 07:43:46;;;;;;;20.08;5.53;;;;;;;22.73;54.69;99614.72;4973030;28;20160;-45
2022/11/16 07:46:14;;;;;;;16.02;5.15;;;;;;;22.77;54.56;99620.56;4978546;28;20099;-44
2022/11/16 07:48:41;;;;;;;13.70;4.88;;;;;;;22.79;54.74;99621.31;4975785;28;20511;-42
2022/11/16 07:51:17;;;;;;;16.27;5.07;;;;;;;22.81;54.89;99629.94;4975506;28;20033;-42
2022/11/16 07:53:43;;;;;;;12.73;3.75;;;;;;;22.83;54.80;99636.75;4979172;28;20109;-42
2022/11/16 07:56:12;;;;;;;15.40;4.70;;;;;;;22.84;54.94;99632.34;4989292;28;20049;-42
2022/11/16 07:58:41;;;;;;;28.30;8.30;;;;;;;22.86;54.92;99631.25;4989834;28;20439;-43
2022/11/16 08:01:12;;;;;;;11.05;3.83;;;;;;;22.88;54.93;99639.91;4969423;28;20042;-44
2022/11/16 08:03:38;;;;;;;12.13;4.47;;;;;;;22.91;54.91;99641.47;4975055;28;20800;-44
2022/11/16 08:06:10;;;;;;;14.85;5.47;;;;;;;22.93;54.94;99650.09;4973461;28;20028;-46
2022/11/16 08:08:36;;;;;;;18.08;6.22;;;;;;;22.94;54.99;99651.78;4979102;28;20057;-46
2022/11/16 08:11:05;;;;;;;17.15;7.15;;;;;;;22.96;55.07;99654.28;4975045;28;20101;-44
2022/11/16 08:13:35;;;;;;;12.45;4.45;;;;;;;22.97;54.97;99658.59;4974905;28;20045;-43
2022/11/16 08:16:20;;;;;;;14.40;5.82;;;;;;;22.99;55.08;99662.78;4979756;28;20029;-44
2022/11/16 08:18:46;;;;;;;17.73;5.25;;;;;;;22.98;54.77;99666.38;4995972;28;20034;-43
2022/11/16 08:21:14;;;;;;;17.00;4.97;;;;;;;22.90;54.78;99666.97;4999984;28;20030;-43
2022/11/16 08:23:40;;;;;;;20.23;5.80;;;;;;;22.83;54.75;99678.06;4995032;28;20042;-41
2022/11/16 08:26:13;;;;;;;12.45;4.03;;;;;;;22.76;54.80;99687.44;4997257;28;20052;-43
2022/11/16 08:28:40;;;;;;;17.75;5.55;;;;;;;22.69;54.90;99689.69;5004630;28;20060;-43
2022/11/16 08:31:14;;;;;;;17.55;6.78;;;;;;;22.64;55.03;99702.38;5000989;28;20095;-44
2022/11/16 08:33:43;;;;;;;17.48;4.97;;;;;;;22.62;55.03;99695.53;4998539;28;20123;-44
2022/11/16 08:36:12;;;;;;;11.98;4.38;;;;;;;22.59;55.10;99688.66;4991480;28;20034;-46
2022/11/16 08:38:39;;;;;;;16.05;5.25;;;;;;;22.60;54.99;99692.16;4996459;28;20042;-42
2022/11/16 08:41:05;;;;;;;13.68;4.97;;;;;;;22.58;55.05;99681.75;4994308;28;20041;-41
2022/11/16 08:43:32;;;;;;;15.52;5.88;;;;;;;22.57;54.99;99689.75;4994729;28;20034;-41
2022/11/16 08:45:58;;;;;;;8.32;3.25;;;;;;;22.55;54.95;99692.50;4996236;28;20035;-42
2022/11/16 08:48:24;;;;;;;5.90;3.20;;;;;;;22.55;55.04;99696.94;4997752;28;20033;-42
2022/11/16 08:50:49;;;;;;;11.82;3.97;;;;;;;22.54;54.93;99704.00;5002878;28;20050;-47
2022/11/16 08:53:14;;;;;;;15.38;4.93;;;;;;;22.56;55.09;99701.25;4987899;28;20567;-43
2022/11/16 08:55:43;;;;;;;14.60;4.72;;;;;;;22.56;54.89;99704.69;4995158;28;20042;-46
2022/11/16 08:58:10;;;;;;;15.05;6.03;;;;;;;22.56;54.94;99709.16;4993063;28;20049;-46
2022/11/16 09:00:36;;;;;;;13.48;4.95;;;;;;;22.59;55.08;99701.03;4993341;28;20069;-45
2022/11/16 09:03:01;;;;;;;14.68;4.70;;;;;;;22.65;54.99;99698.75;4998302;28;20053;-42
2022/11/16 09:05:27;;;;;;;19.35;7.65;;;;;;;22.74;55.00;99699.88;4994262;28;20097;-45
2022/11/16 09:07:52;;;;;;;14.98;5.20;;;;;;;22.82;54.82;99700.13;4999819;28;20092;-41
2022/11/16 09:10:21;;;;;;;10.63;3.90;;;;;;;22.90;55.07;99698.59;4995874;28;20645;-42
2022/11/16 09:12:48;;;;;;;10.38;3.53;;;;;;;22.98;54.90;99699.81;5002699;28;20569;-40
2022/11/16 09:15:13;;;;;;;13.35;4.53;;;;;;;23.02;55.13;99699.47;4999342;28;20037;-41
2022/11/16 09:17:38;;;;;;;13.38;5.00;;;;;;;23.08;54.96;99704.25;5001377;28;20388;-43
2022/11/16 09:20:05;;;;;;;12.90;4.28;;;;;;;23.10;54.95;99702.34;4999336;28;20021;-42
2022/11/16 09:22:30;;;;;;;19.30;6.88;;;;;;;23.15;55.05;99709.91;4991383;28;20688;-42
2022/11/16 09:24:56;;;;;;;14.10;4.72;;;;;;;23.17;55.07;99706.19;4996451;28;20057;-39
2022/11/16 09:27:21;;;;;;;16.15;5.40;;;;;;;23.20;55.27;99700.72;4998304;28;20037;-41
2022/11/16 09:29:46;;;;;;;10.93;3.85;;;;;;;23.25;55.18;99705.63;4999924;28;20668;-42
2022/11/16 09:32:12;;;;;;;12.00;4.35;;;;;;;23.27;55.08;99699.28;5000718;28;20123;-41
2022/11/16 09:34:37;;;;;;;16.63;5.75;;;;;;;23.29;55.45;99707.06;5007910;28;20042;-41
2022/11/16 09:37:03;;;;;;;17.70;5.68;;;;;;;23.29;55.29;99707.91;4997460;28;20046;-42
2022/11/16 09:39:31;;;;;;;13.25;4.68;;;;;;;23.30;55.37;99708.78;4997788;28;20544;-49
2022/11/16 09:42:27;;;;;;;15.25;3.92;;;;;;;23.33;55.64;99713.81;4999960;28;20034;-46
2022/11/16 09:45:35;;;;;;;14.05;4.78;;;;;;;23.35;55.64;99712.72;5014792;28;20130;-41
2022/11/16 09:48:04;;;;;;;12.70;4.50;;;;;;;23.36;55.65;99710.94;4985684;28;20514;-43
2022/11/16 09:50:48;;;;;;;12.15;4.43;;;;;;;23.39;55.69;99723.88;4998890;28;20053;-43
2022/11/16 09:53:24;;;;;;;15.90;5.75;;;;;;;23.39;55.75;99714.13;4995832;28;20096;-43
2022/11/16 09:55:52;;;;;;;15.73;4.63;;;;;;;23.40;55.50;99715.00;5001413;28;20456;-42
2022/11/16 09:58:26;;;;;;;11.73;4.28;;;;;;;23.39;55.49;99708.88;4998874;28;20120;-43
2022/11/16 10:01:01;;;;;;;20.02;5.13;;;;;;;23.42;55.66;99713.91;4997414;28;20105;-44
2022/11/16 10:03:27;;;;;;;;;;;;;;;23.44;55.60;99700.63;4999854;28;20040;-43
2022/11/16 10:06:05;;;;;;;15.02;5.20;;;;;;;23.46;55.67;99701.31;4995491;28;19922;-46
2022/11/16 10:08:47;;;;;;;10.82;4.03;;;;;;;23.47;55.60;99696.88;4996376;28;20053;-44
2022/11/16 10:11:51;;;;;;;11.40;4.57;;;;;;;23.48;55.88;99696.78;4997275;28;20042;-45
2022/11/16 10:14:27;;;;;;;9.73;3.53;;;;;;;23.48;55.86;99691.50;4997347;28;20050;-44
2022/11/16 10:17:05;;;;;;;13.55;4.60;;;;;;;23.50;56.03;99694.00;4997521;28;20045;-45
2022/11/16 10:19:41;;;;;;;19.95;6.13;;;;;;;23.51;55.97;99693.06;4997009;28;20049;-44
2022/11/16 10:22:28;;;;;;;14.68;4.57;;;;;;;23.54;55.92;99684.91;4992563;28;20107;-45
2022/11/16 10:25:06;;;;;;;18.42;6.40;;;;;;;23.54;56.12;99688.38;4997614;28;20033;-44
2022/11/16 10:27:49;;;;;;;14.90;5.45;;;;;;;23.54;55.95;99684.91;4997029;28;20038;-43
2022/11/16 10:30:17;;;;;;;15.73;5.05;;;;;;;23.54;56.04;99680.44;4997052;28;20041;-43
2022/11/16 10:33:06;;;;;;;16.73;5.50;;;;;;;23.56;56.13;99686.47;5002073;28;20085;-43
2022/11/16 10:35:38;;;;;;;19.08;7.38;;;;;;;23.56;56.01;99685.63;4998724;28;20542;-44
2022/11/16 10:38:13;;;;;;;14.02;4.95;;;;;;;23.57;56.12;99672.28;4996849;28;20038;-43
2022/11/16 10:40:40;;;;;;;13.13;3.72;;;;;;;23.59;55.89;99672.19;5000190;28;20137;-43
2022/11/16 10:43:13;;;;;;;14.05;5.32;;;;;;;23.60;56.23;99668.59;5002290;28;20040;-45
2022/11/16 10:45:42;;;;;;;14.55;4.82;;;;;;;23.61;55.97;99664.97;4998460;28;20030;-44
2022/11/16 10:48:23;;;;;;;16.92;6.22;;;;;;;23.61;56.24;99664.97;4993208;28;20830;-44
2022/11/16 10:50:51;;;;;;;17.50;5.43;;;;;;;23.62;56.17;99664.03;4996460;28;20061;-44
2022/11/16 10:53:31;;;;;;;12.05;4.30;;;;;;;23.64;56.08;99665.59;4995850;28;20057;-46
2022/11/16 10:56:39;;;;;;;14.70;5.10;;;;;;;23.66;56.25;99665.47;4995250;28;20784;-44
2022/11/16 10:59:04;;;;;;;17.33;7.63;;;;;;;23.67;56.09;99657.44;4992721;28;20069;-46
2022/11/16 11:01:31;;;;;;;11.45;4.22;;;;;;;23.70;56.05;99658.97;4996446;28;20673;-44
2022/11/16 11:04:26;;;;;;;17.75;5.07;;;;;;;23.70;56.33;99658.97;4996510;28;20069;-43
2022/11/16 11:07:00;;;;;;;13.63;4.78;;;;;;;23.69;56.25;99652.03;4990427;28;20026;-44
2022/11/16 11:09:25;;;;;;;;;;;;;;;23.70;56.16;99643.13;4997912;28;20112;-43
2022/11/16 11:15:09;;;;;;;13.30;5.00;;;;;;;23.73;56.47;99650.81;4998330;28;20049;-45
2022/11/16 11:17:40;;;;;;;13.55;4.63;;;;;;;23.73;56.15;99641.09;4997569;28;20733;-43
2022/11/16 11:20:09;;;;;;;15.45;4.82;;;;;;;23.75;56.32;99638.34;4998155;28;20521;-45
2022/11/16 11:22:50;;;;;;;16.77;5.22;;;;;;;23.74;56.36;99637.50;5002844;28;20048;-45
2022/11/16 11:25:27;;;;;;;10.65;4.15;;;;;;;23.73;56.53;99634.97;4997733;28;20042;-43
2022/11/16 11:28:22;;;;;;;17.23;5.28;;;;;;;23.74;56.42;99629.59;5004862;28;20470;-44
2022/11/16 11:31:01;;;;;;;17.38;6.72;;;;;;;23.77;56.50;99633.78;4996046;28;20769;-43
2022/11/16 11:33:33;;;;;;;13.48;4.28;;;;;;;23.78;56.59;99628.38;4997738;28;20108;-43
2022/11/16 11:36:17;;;;;;;12.68;4.25;;;;;;;23.80;56.35;99633.53;4994867;28;20392;-44
2022/11/16 11:39:27;;;;;;;13.50;4.90;;;;;;;23.80;55.97;99618.56;4995210;28;20041;-44
2022/11/16 11:42:19;;;;;;;20.10;5.00;;;;;;;23.67;54.09;99606.44;5001699;28;20045;-45
2022/11/16 11:45:07;;;;;;;16.35;5.40;;;;;;;23.57;53.73;99602.88;4997590;28;20037;-42
2022/11/16 11:47:52;;;;;;;21.92;6.78;;;;;;;23.49;54.25;99594.72;4992663;28;20040;-41
2022/11/16 11:50:35;;;;;;;15.52;4.78;;;;;;;23.41;54.66;99596.19;4996786;28;20042;-42
2022/11/16 11:53:17;;;;;;;13.70;4.70;;;;;;;23.33;54.73;99590.66;4990285;28;20133;-40
2022/11/16 11:55:42;;;;;;;20.42;5.07;;;;;;;23.27;54.68;99591.16;4996241;28;20597;-41
2022/11/16 11:58:15;;;;;;;17.40;5.60;;;;;;;23.24;54.74;99593.22;4993726;28;20110;-39
2022/11/16 12:01:08;;;;;;;22.60;6.55;;;;;;;23.20;54.54;99583.88;4996956;28;20718;-40
2022/11/16 12:03:39;;;;;;;17.48;5.75;;;;;;;23.18;54.67;99589.28;5007543;28;20022;-42
2022/11/16 12:06:32;;;;;;;12.65;4.38;;;;;;;23.16;54.83;99585.88;4999393;28;20137;-41
2022/11/16 12:09:11;;;;;;;20.08;4.20;;;;;;;23.14;54.72;99587.78;4994276;28;20750;-41
2022/11/16 12:11:58;;;;;;;18.27;5.75;;;;;;;23.12;54.68;99566.00;4995720;28;20053;-40
2022/11/16 12:14:54;;;;;;;16.25;4.97;;;;;;;23.10;54.98;99564.41;4994703;28;20045;-47
2022/11/16 12:17:50;;;;;;;21.88;5.82;;;;;;;23.06;54.80;99566.47;4998661;28;20034;-43
2022/11/16 12:20:27;;;;;;;27.85;8.13;;;;;;;23.03;55.01;99569.34;4998798;28;20748;-42
2022/11/16 12:23:05;;;;;;;18.70;5.55;;;;;;;23.02;55.09;99567.66;4990902;28;20072;-45
2022/11/16 12:25:30;;;;;;;23.13;5.85;;;;;;;23.02;54.89;99570.31;4999929;28;20396;-44
2022/11/16 12:28:07;;;;;;;17.35;5.22;;;;;;;23.00;54.96;99561.69;4999181;28;20158;-42
2022/11/16 12:30:47;;;;;;;25.92;6.35;;;;;;;22.97;55.15;99561.94;4985818;28;20025;-43